Terminal Aerodrome Forecast
Issued by NWS

Home | Current Version | Previous Version | Text Only | Print | Product List | Glossary On
Versions: 1 2 3 4 5 6 7 8 9 10 11 12 13 14 15 16 17 18 19 20 21 22 23 24 25 26 27 28 29 30 31 32 33 34 35 36 37 38 39 40 41 42 43 44 45 46 47 48 49 50
000
FTUS44 KHGX 061731
TAFIAH
TAF
KIAH 061731Z 0618/0724 26007KT P6SM FEW025
     FM062100 33005KT P6SM SCT015 SCT035
      TEMPO 0622/0701 BKN020
     FM070100 34005KT P6SM SCT010 BKN020
     FM070700 33004KT 4SM BR BKN006 BKN015
     FM071600 05005KT P6SM SCT015 BKN025
     FM071900 VRB03KT P6SM SCT025=

USA.gov is the U.S. government's official web portal to all federal, state and local government web resources and services.